Time;durP1;ratioP1;P1;durP2;ratioP2;P2;SDS_P1;SDS_P2;PMS_P1;PMS_P2;Temp;Humidity;BMP_temperature;BMP_pressure;BME280_temperature;BME280_humidity;BME280_pressure;Samples;Min_cycle;Max_cycle;Signal;HPM_P1;HPM_P2
2021/03/20 00:01:48;;;;;;;3.33;1.00;;;;;;;;;;5036711;28;20111;-76
2021/03/20 00:04:14;;;;;;;2.20;1.23;;;;;;;;;;5020430;28;20041;-76
2021/03/20 00:06:41;;;;;;;2.35;0.95;;;;;;;;;;5019749;28;20102;-76
2021/03/20 00:09:11;;;;;;;2.13;0.98;;;;;;;;;;5036325;28;20457;-76
2021/03/20 00:11:37;;;;;;;1.98;0.90;;;;;;;;;;5036852;28;20052;-76
2021/03/20 00:14:03;;;;;;;3.55;0.90;;;;;;;;;;5036675;28;20037;-76
2021/03/20 00:16:28;;;;;;;2.35;0.90;;;;;;;;;;5016895;28;20407;-76
2021/03/20 00:18:54;;;;;;;3.05;1.23;;;;;;;;;;5052643;28;20060;-76
2021/03/20 00:21:19;;;;;;;2.20;1.05;;;;;;;;;;5035316;28;20442;-76
2021/03/20 00:23:45;;;;;;;2.38;1.20;;;;;;;;;;5035671;28;20033;-76
2021/03/20 00:26:10;;;;;;;1.80;0.90;;;;;;;;;;5036275;28;20040;-76
2021/03/20 00:28:36;;;;;;;2.78;1.30;;;;;;;;;;5019334;28;20090;-76
2021/03/20 00:31:03;;;;;;;1.67;0.80;;;;;;;;;;5036345;28;20078;-76
2021/03/20 00:33:29;;;;;;;2.22;0.90;;;;;;;;;;5036310;28;20037;-76
2021/03/20 00:35:55;;;;;;;2.25;0.90;;;;;;;;;;5036110;28;20517;-76
2021/03/20 00:38:20;;;;;;;1.75;0.90;;;;;;;;;;5003257;28;20498;-76
2021/03/20 00:40:45;;;;;;;1.98;0.95;;;;;;;;;;5036171;28;20069;-76
2021/03/20 00:43:11;;;;;;;1.75;0.63;;;;;;;;;;5036049;28;20041;-76
2021/03/20 00:45:36;;;;;;;3.53;0.90;;;;;;;;;;5032265;28;20037;-76
2021/03/20 00:48:08;;;;;;;2.15;1.08;;;;;;;;;;5021132;28;20092;-76
2021/03/20 00:50:34;;;;;;;2.03;1.05;;;;;;;;;;5032021;28;20036;-76
2021/03/20 00:52:59;;;;;;;2.13;0.90;;;;;;;;;;5032124;28;20132;-76
2021/03/20 00:55:24;;;;;;;1.05;0.70;;;;;;;;;;5015931;28;20554;-76
2021/03/20 00:57:50;;;;;;;2.25;0.80;;;;;;;;;;5032306;28;20033;-76
2021/03/20 01:00:18;;;;;;;1.70;0.73;;;;;;;;;;5015774;28;20110;-76
2021/03/20 01:02:44;;;;;;;2.55;0.80;;;;;;;;;;5035569;28;20029;-76
2021/03/20 01:05:10;;;;;;;2.67;1.02;;;;;;;;;;5035459;28;20041;-76
2021/03/20 01:07:35;;;;;;;1.65;0.90;;;;;;;;;;5035317;28;20407;-75
2021/03/20 01:10:01;;;;;;;2.47;1.23;;;;;;;;;;5035194;28;20047;-76
2021/03/20 01:12:26;;;;;;;1.77;0.90;;;;;;;;;;5035226;28;20457;-76
2021/03/20 01:14:52;;;;;;;1.52;0.70;;;;;;;;;;5051707;28;20041;-76
2021/03/20 01:17:17;;;;;;;1.45;0.82;;;;;;;;;;5019069;28;20041;-76
2021/03/20 01:19:43;;;;;;;1.85;0.80;;;;;;;;;;5034943;28;20376;-76
2021/03/20 01:22:08;;;;;;;1.88;1.02;;;;;;;;;;5034773;28;20055;-76
2021/03/20 01:24:33;;;;;;;1.92;0.80;;;;;;;;;;5051531;28;20498;-76
2021/03/20 01:26:59;;;;;;;1.77;1.02;;;;;;;;;;5035039;28;20115;-76
2021/03/20 01:29:24;;;;;;;1.85;0.90;;;;;;;;;;5052827;28;20395;-76
2021/03/20 01:31:51;;;;;;;2.53;1.15;;;;;;;;;;5018121;28;20091;-76
2021/03/20 01:34:17;;;;;;;2.33;0.88;;;;;;;;;;5033970;28;20036;-76
2021/03/20 01:36:42;;;;;;;2.28;0.80;;;;;;;;;;5018152;28;20041;-76
2021/03/20 01:39:07;;;;;;;2.03;0.90;;;;;;;;;;5051417;28;20040;-76
2021/03/20 01:41:33;;;;;;;1.63;0.90;;;;;;;;;;5034248;28;20469;-76
2021/03/20 01:43:58;;;;;;;2.13;1.00;;;;;;;;;;5034628;28;20095;-76
2021/03/20 01:46:38;;;;;;;2.80;1.25;;;;;;;;;;5034861;28;20102;-76
2021/03/20 01:49:15;;;;;;;2.30;0.98;;;;;;;;;;5034533;28;20107;-76
2021/03/20 01:51:41;;;;;;;1.65;0.80;;;;;;;;;;5035309;28;20076;-76
2021/03/20 01:54:06;;;;;;;2.10;0.75;;;;;;;;;;5017912;28;20111;-76
2021/03/20 01:56:36;;;;;;;2.47;0.88;;;;;;;;;;5018234;28;20521;-76
2021/03/20 01:59:01;;;;;;;2.53;1.50;;;;;;;;;;5035152;28;20061;-76
2021/03/20 02:01:29;;;;;;;2.90;1.20;;;;;;;;;;5034349;28;20045;-76
2021/03/20 02:03:56;;;;;;;2.13;0.90;;;;;;;;;;5018101;28;20430;-76
2021/03/20 02:06:22;;;;;;;2.40;0.80;;;;;;;;;;5034429;28;20510;-76
2021/03/20 02:08:47;;;;;;;2.63;0.88;;;;;;;;;;5017945;28;20103;-76
2021/03/20 02:11:28;;;;;;;2.00;1.02;;;;;;;;;;5034271;28;20045;-76
2021/03/20 02:14:30;;;;;;;1.83;0.93;;;;;;;;;;5051917;28;20037;-76
2021/03/20 02:17:02;;;;;;;2.40;0.75;;;;;;;;;;5026509;28;20123;-76
2021/03/20 02:19:43;;;;;;;2.67;0.85;;;;;;;;;;5018246;28;20033;-75
2021/03/20 02:22:24;;;;;;;2.95;1.10;;;;;;;;;;5051528;28;20244;-75
2021/03/20 02:25:27;;;;;;;1.65;0.75;;;;;;;;;;5018637;28;20044;-75
2021/03/20 02:28:14;;;;;;;2.67;0.93;;;;;;;;;;5051405;28;20060;-75
2021/03/20 02:30:54;;;;;;;3.60;1.10;;;;;;;;;;5050257;28;20060;-75
2021/03/20 02:33:27;;;;;;;1.70;0.80;;;;;;;;;;5050775;28;20048;-75
2021/03/20 02:35:58;;;;;;;3.05;0.85;;;;;;;;;;5050713;28;20044;-75
2021/03/20 02:38:45;;;;;;;2.93;0.90;;;;;;;;;;5051747;28;20068;-75
2021/03/20 02:41:48;;;;;;;3.03;1.10;;;;;;;;;;5036165;28;20048;-75
2021/03/20 02:44:29;;;;;;;1.85;0.77;;;;;;;;;;5050182;28;20045;-75
2021/03/20 02:47:00;;;;;;;2.17;0.80;;;;;;;;;;5034762;28;20047;-75
2021/03/20 02:49:45;;;;;;;2.13;0.80;;;;;;;;;;5017257;28;20044;-75
2021/03/20 02:52:16;;;;;;;2.13;0.70;;;;;;;;;;5050241;28;20102;-75
2021/03/20 02:55:05;;;;;;;1.23;0.60;;;;;;;;;;5030034;28;20088;-75
2021/03/20 02:57:43;;;;;;;2.42;0.70;;;;;;;;;;5049439;28;20029;-75
2021/03/20 03:00:21;;;;;;;1.92;0.73;;;;;;;;;;5031462;28;20041;-75
2021/03/20 03:02:46;;;;;;;2.28;0.80;;;;;;;;;;5033892;28;20454;-75
2021/03/20 03:05:17;;;;;;;2.17;0.80;;;;;;;;;;5033719;28;20040;-75
2021/03/20 03:07:52;;;;;;;1.88;0.80;;;;;;;;;;5033547;28;20041;-75
2021/03/20 03:10:22;;;;;;;1.23;0.55;;;;;;;;;;5017244;28;20119;-75
2021/03/20 03:13:20;;;;;;;2.15;0.50;;;;;;;;;;5050408;28;20041;-75
2021/03/20 03:15:50;;;;;;;2.53;0.80;;;;;;;;;;5014885;28;20038;-75
2021/03/20 03:18:25;;;;;;;2.75;0.70;;;;;;;;;;4997929;28;20095;-75
2021/03/20 03:20:53;;;;;;;1.92;0.80;;;;;;;;;;5046338;28;20417;-75
2021/03/20 03:23:23;;;;;;;2.17;0.73;;;;;;;;;;4981161;28;20036;-75
2021/03/20 03:25:52;;;;;;;2.05;0.65;;;;;;;;;;5014183;28;20069;-75
2021/03/20 03:28:20;;;;;;;3.05;0.82;;;;;;;;;;5013992;28;20053;-75
2021/03/20 03:30:45;;;;;;;2.35;0.73;;;;;;;;;;5029976;28;20041;-75
2021/03/20 03:33:27;;;;;;;1.63;0.68;;;;;;;;;;5013523;28;20099;-75
2021/03/20 03:35:58;;;;;;;3.25;1.00;;;;;;;;;;4998808;28;20041;-75
2021/03/20 03:38:54;;;;;;;2.33;0.80;;;;;;;;;;5013731;28;20036;-75
2021/03/20 03:41:40;;;;;;;2.28;1.00;;;;;;;;;;5029744;28;20064;-75
2021/03/20 03:44:07;;;;;;;1.85;0.85;;;;;;;;;;5007200;28;20124;-75
2021/03/20 03:46:35;;;;;;;2.83;1.00;;;;;;;;;;5033792;28;20029;-75
2021/03/20 03:49:03;;;;;;;1.33;0.70;;;;;;;;;;5033317;28;20037;-75
2021/03/20 03:51:29;;;;;;;1.60;0.70;;;;;;;;;;5000741;28;20127;-75
2021/03/20 03:53:54;;;;;;;1.27;0.60;;;;;;;;;;5016563;28;20115;-75
2021/03/20 03:56:57;;;;;;;2.60;0.80;;;;;;;;;;5000373;28;20033;-75
2021/03/20 03:59:35;;;;;;;;;;;;;;;;;;5054884;28;20115;-75
2021/03/20 04:02:30;;;;;;;1.88;1.00;;;;;;;;;;5053547;28;20374;-75
2021/03/20 04:05:13;;;;;;;2.05;0.80;;;;;;;;;;5036438;28;20029;-75
2021/03/20 04:07:53;;;;;;;2.25;0.70;;;;;;;;;;5036764;28;20029;-75
2021/03/20 04:10:21;;;;;;;2.70;1.08;;;;;;;;;;5054394;28;20061;-75
2021/03/20 04:12:49;;;;;;;2.33;0.70;;;;;;;;;;5053848;28;20048;-75
2021/03/20 04:15:54;;;;;;;1.13;0.57;;;;;;;;;;5054164;28;20083;-75
2021/03/20 04:18:44;;;;;;;2.03;0.68;;;;;;;;;;5037513;28;20589;-75
2021/03/20 04:21:40;;;;;;;2.85;0.70;;;;;;;;;;5052770;28;20064;-75
2021/03/20 04:24:10;;;;;;;1.70;0.82;;;;;;;;;;5053736;28;20029;-75
2021/03/20 04:26:54;;;;;;;3.08;1.02;;;;;;;;;;5053345;28;20048;-75
2021/03/20 04:29:51;;;;;;;1.65;0.70;;;;;;;;;;5053912;28;20063;-75
2021/03/20 04:32:27;;;;;;;2.28;0.93;;;;;;;;;;5036229;28;20458;-75
2021/03/20 04:34:59;;;;;;;2.10;0.80;;;;;;;;;;5037164;28;20045;-75
2021/03/20 04:37:30;;;;;;;1.90;0.70;;;;;;;;;;5020187;28;20040;-75
2021/03/20 04:39:56;;;;;;;1.90;0.80;;;;;;;;;;5032130;28;20044;-75
2021/03/20 04:42:29;;;;;;;2.10;0.80;;;;;;;;;;5032398;28;20041;-75
2021/03/20 04:44:55;;;;;;;1.80;0.70;;;;;;;;;;5016315;28;20560;-75
2021/03/20 04:47:22;;;;;;;1.50;0.68;;;;;;;;;;5032642;28;20068;-75
2021/03/20 04:49:50;;;;;;;2.22;0.73;;;;;;;;;;5015985;28;20112;-75
2021/03/20 04:52:26;;;;;;;1.60;0.90;;;;;;;;;;5016149;28;20037;-75
2021/03/20 04:54:51;;;;;;;2.03;0.90;;;;;;;;;;5017212;28;20091;-75
2021/03/20 04:57:34;;;;;;;3.00;0.93;;;;;;;;;;5032268;28;20029;-75
2021/03/20 05:00:08;;;;;;;1.42;0.60;;;;;;;;;;5032217;28;20041;-75
2021/03/20 05:02:53;;;;;;;1.20;0.50;;;;;;;;;;5035552;28;20032;-75
2021/03/20 05:05:24;;;;;;;2.05;0.80;;;;;;;;;;5052356;28;20056;-75
2021/03/20 05:07:52;;;;;;;2.25;0.80;;;;;;;;;;5035205;28;20411;-75
2021/03/20 05:10:31;;;;;;;2.10;0.80;;;;;;;;;;5051882;28;20055;-75
2021/03/20 05:12:57;;;;;;;2.13;1.10;;;;;;;;;;5036888;28;20112;-75
2021/03/20 05:15:26;;;;;;;2.72;0.90;;;;;;;;;;5035480;28;20104;-75
2021/03/20 05:17:52;;;;;;;1.70;0.70;;;;;;;;;;5035266;28;20090;-75
2021/03/20 05:20:17;;;;;;;2.42;0.85;;;;;;;;;;5051600;28;20035;-75
2021/03/20 05:22:43;;;;;;;4.75;1.10;;;;;;;;;;5018180;28;20043;-74
2021/03/20 05:25:14;;;;;;;2.88;1.15;;;;;;;;;;5035392;28;20402;-74
2021/03/20 05:27:39;;;;;;;1.90;1.00;;;;;;;;;;5051659;28;20033;-74
2021/03/20 05:30:05;;;;;;;1.50;0.70;;;;;;;;;;5034940;28;20449;-74
2021/03/20 05:32:32;;;;;;;2.00;0.90;;;;;;;;;;5035409;28;20037;-74
2021/03/20 05:34:58;;;;;;;3.38;1.20;;;;;;;;;;5034588;28;20041;-75
2021/03/20 05:37:29;;;;;;;2.03;0.82;;;;;;;;;;5035196;28;20384;-74
2021/03/20 05:39:54;;;;;;;2.08;1.00;;;;;;;;;;5034512;28;20118;-75
2021/03/20 05:42:25;;;;;;;1.73;0.80;;;;;;;;;;5034684;28;20044;-74
2021/03/20 05:45:09;;;;;;;3.13;0.93;;;;;;;;;;5034854;28;20036;-74
2021/03/20 05:47:43;;;;;;;2.13;0.90;;;;;;;;;;5052845;28;20110;-75
2021/03/20 05:50:31;;;;;;;1.65;0.90;;;;;;;;;;5052568;28;20552;-75
2021/03/20 05:53:03;;;;;;;2.10;1.10;;;;;;;;;;5036970;28;20116;-74
2021/03/20 05:55:45;;;;;;;3.37;1.20;;;;;;;;;;5051044;28;20556;-75
2021/03/20 05:58:15;;;;;;;2.90;1.20;;;;;;;;;;5035769;28;20521;-75
2021/03/20 06:00:41;;;;;;;2.10;1.08;;;;;;;;;;5034680;28;20082;-77
2021/03/20 06:03:36;;;;;;;2.78;1.23;;;;;;;;;;5052165;28;20108;-77
2021/03/20 06:06:21;;;;;;;3.42;1.38;;;;;;;;;;5050223;28;20410;-76
2021/03/20 06:09:24;;;;;;;3.88;1.45;;;;;;;;;;4997737;28;20057;-75
2021/03/20 06:12:06;;;;;;;2.83;1.27;;;;;;;;;;5028285;28;20927;-76
2021/03/20 06:15:00;;;;;;;4.88;1.30;;;;;;;;;;5041976;28;20040;-76
2021/03/20 06:17:29;;;;;;;3.72;1.23;;;;;;;;;;5042420;28;20045;-76
2021/03/20 06:20:16;;;;;;;3.55;1.00;;;;;;;;;;5050168;28;20469;-77
2021/03/20 06:23:00;;;;;;;3.35;1.33;;;;;;;;;;5063544;28;20048;-77
2021/03/20 06:26:04;;;;;;;2.83;1.20;;;;;;;;;;5031749;28;20029;-76
2021/03/20 06:28:34;;;;;;;4.03;1.00;;;;;;;;;;5014318;28;20140;-76
2021/03/20 06:31:03;;;;;;;2.60;1.27;;;;;;;;;;5014368;28;20049;-79
2021/03/20 06:33:49;;;;;;;2.05;1.27;;;;;;;;;;5014519;28;20071;-80
2021/03/20 06:36:26;;;;;;;3.65;1.30;;;;;;;;;;5017561;28;20037;-80
2021/03/20 06:39:05;;;;;;;4.60;1.10;;;;;;;;;;5049951;28;20518;-81
2021/03/20 06:41:42;;;;;;;3.25;1.40;;;;;;;;;;5001320;28;20036;-80
2021/03/20 06:44:19;;;;;;;2.97;1.33;;;;;;;;;;5017740;28;20072;-80
2021/03/20 06:46:45;;;;;;;3.08;1.23;;;;;;;;;;5033893;28;20033;-80
2021/03/20 06:49:25;;;;;;;3.33;1.23;;;;;;;;;;5000794;28;20079;-80
2021/03/20 06:51:51;;;;;;;6.25;1.70;;;;;;;;;;5033652;28;20487;-79
2021/03/20 06:54:17;;;;;;;10.88;2.72;;;;;;;;;;5016851;28;20029;-82
2021/03/20 06:56:42;;;;;;;5.78;2.78;;;;;;;;;;5001199;28;20032;-81
2021/03/20 06:59:11;;;;;;;12.90;3.60;;;;;;;;;;5033431;28;20033;-81
2021/03/20 07:01:40;;;;;;;7.90;3.03;;;;;;;;;;5013609;28;20040;-80
2021/03/20 07:04:11;;;;;;;6.63;3.58;;;;;;;;;;5030472;28;20060;-81
2021/03/20 07:06:45;;;;;;;7.18;3.78;;;;;;;;;;5030689;28;20035;-80
2021/03/20 07:09:10;;;;;;;5.93;3.75;;;;;;;;;;5033215;28;20037;-80
2021/03/20 07:11:44;;;;;;;5.13;3.75;;;;;;;;;;5000658;28;20459;-81
2021/03/20 07:14:11;;;;;;;7.50;3.45;;;;;;;;;;5033639;28;20044;-81
2021/03/20 07:17:01;;;;;;;4.68;3.17;;;;;;;;;;5017376;28;20140;-81
2021/03/20 07:19:26;;;;;;;6.57;3.35;;;;;;;;;;5033026;28;20056;-81
2021/03/20 07:21:58;;;;;;;8.00;2.85;;;;;;;;;;5016940;28;20479;-81
2021/03/20 07:24:39;;;;;;;5.90;2.45;;;;;;;;;;5033206;28;20102;-81
2021/03/20 07:27:06;;;;;;;6.13;2.85;;;;;;;;;;5034152;28;20064;-81
2021/03/20 07:29:38;;;;;;;5.80;2.45;;;;;;;;;;5033589;28;20033;-81
2021/03/20 07:32:04;;;;;;;6.30;2.50;;;;;;;;;;5034477;28;20434;-81
2021/03/20 07:34:30;;;;;;;5.50;2.45;;;;;;;;;;5004580;28;20039;-81
2021/03/20 07:37:03;;;;;;;4.05;2.10;;;;;;;;;;5036709;28;20056;-80
2021/03/20 07:39:38;;;;;;;5.93;1.98;;;;;;;;;;5053692;28;20040;-80
2021/03/20 07:42:06;;;;;;;6.18;2.40;;;;;;;;;;5037453;28;20025;-80
2021/03/20 07:45:02;;;;;;;6.38;3.30;;;;;;;;;;5054337;28;20565;-80
2021/03/20 07:47:33;;;;;;;6.30;3.17;;;;;;;;;;5053570;28;20029;-80
2021/03/20 07:50:54;;;;;;;19.60;4.27;;;;;;;;;;5037086;28;20040;-82
2021/03/20 07:53:20;;;;;;;7.13;2.70;;;;;;;;;;5018191;28;20049;-81
2021/03/20 07:56:05;;;;;;;17.52;3.88;;;;;;;;;;5020328;28;20029;-81
2021/03/20 07:58:47;;;;;;;7.03;2.60;;;;;;;;;;5043330;28;20030;-80
2021/03/20 08:01:23;;;;;;;8.10;2.25;;;;;;;;;;5030467;28;20038;-81
2021/03/20 08:03:56;;;;;;;4.45;1.90;;;;;;;;;;5037756;28;20072;-81
2021/03/20 08:06:32;;;;;;;3.67;1.88;;;;;;;;;;5036652;28;20037;-76
2021/03/20 08:09:22;;;;;;;6.00;1.98;;;;;;;;;;5053124;28;20037;-76
2021/03/20 08:12:05;;;;;;;6.43;2.08;;;;;;;;;;5054530;28;20048;-76
2021/03/20 08:14:47;;;;;;;5.28;2.03;;;;;;;;;;5038478;28;20454;-74
2021/03/20 08:17:18;;;;;;;4.97;1.88;;;;;;;;;;5033282;28;20045;-74
2021/03/20 08:19:43;;;;;;;4.90;1.77;;;;;;;;;;5016479;28;20151;-74
2021/03/20 08:22:31;;;;;;;6.50;2.15;;;;;;;;;;5016523;28;20037;-74
2021/03/20 08:25:24;;;;;;;6.40;1.90;;;;;;;;;;5033988;28;20041;-74
2021/03/20 08:27:55;;;;;;;4.47;1.65;;;;;;;;;;5033217;28;20026;-75
2021/03/20 08:30:24;;;;;;;5.15;1.50;;;;;;;;;;5034297;28;20045;-74
2021/03/20 08:33:27;;;;;;;9.27;1.98;;;;;;;;;;5050680;28;20045;-75
2021/03/20 08:36:05;;;;;;;7.25;2.20;;;;;;;;;;5053935;28;20033;-78
2021/03/20 08:38:55;;;;;;;17.63;2.75;;;;;;;;;;5036124;28;20067;-79
2021/03/20 08:41:36;;;;;;;11.85;2.83;;;;;;;;;;5035622;28;20103;-82
2021/03/20 08:44:46;;;;;;;7.78;2.30;;;;;;;;;;5053219;28;20559;-79
2021/03/20 08:47:30;;;;;;;4.93;2.33;;;;;;;;;;5029415;28;20083;-79
2021/03/20 08:50:20;;;;;;;5.70;1.58;;;;;;;;;;5035416;28;20132;-79
2021/03/20 08:53:08;;;;;;;9.13;2.40;;;;;;;;;;5051836;28;20041;-79
2021/03/20 08:55:58;;;;;;;8.65;2.85;;;;;;;;;;5035831;28;20111;-79
2021/03/20 08:58:29;;;;;;;19.45;3.70;;;;;;;;;;5051987;28;20041;-80
2021/03/20 09:01:20;;;;;;;21.70;2.97;;;;;;;;;;5019454;28;20518;-78
2021/03/20 09:03:51;;;;;;;15.38;3.55;;;;;;;;;;5017788;28;20120;-79
2021/03/20 09:06:45;;;;;;;7.50;2.77;;;;;;;;;;5029815;28;20437;-78
2021/03/20 09:09:14;;;;;;;7.22;1.98;;;;;;;;;;5020928;28;20816;-79
2021/03/20 09:11:58;;;;;;;7.85;2.15;;;;;;;;;;5050349;28;20571;-79
2021/03/20 09:14:26;;;;;;;7.30;2.05;;;;;;;;;;5015162;28;20046;-78
2021/03/20 09:17:21;;;;;;;7.25;1.80;;;;;;;;;;5034679;28;20115;-79
2021/03/20 09:19:50;;;;;;;5.90;1.65;;;;;;;;;;5006051;28;20079;-81
2021/03/20 09:22:16;;;;;;;4.22;1.90;;;;;;;;;;5035136;28;20534;-80
2021/03/20 09:25:03;;;;;;;8.38;1.90;;;;;;;;;;5051746;28;20051;-80
2021/03/20 09:27:59;;;;;;;4.57;1.60;;;;;;;;;;5019590;28;20037;-80
2021/03/20 09:30:35;;;;;;;3.50;1.60;;;;;;;;;;5034787;28;20036;-80
2021/03/20 09:33:22;;;;;;;4.50;1.92;;;;;;;;;;5018286;28;20029;-80
2021/03/20 09:35:52;;;;;;;4.80;1.83;;;;;;;;;;5030403;28;20045;-80
2021/03/20 09:38:36;;;;;;;5.38;1.75;;;;;;;;;;5035368;28;20513;-80
2021/03/20 09:41:13;;;;;;;3.92;1.20;;;;;;;;;;5051169;28;20044;-81
2021/03/20 09:43:41;;;;;;;4.28;1.83;;;;;;;;;;5034661;28;20029;-81
2021/03/20 09:46:25;;;;;;;4.45;1.48;;;;;;;;;;5034692;28;20037;-80
2021/03/20 09:48:54;;;;;;;3.75;2.00;;;;;;;;;;5051086;28;20040;-81
2021/03/20 09:51:50;;;;;;;4.60;2.33;;;;;;;;;;5035030;28;20049;-82
2021/03/20 09:56:54;;;;;;;2.70;1.23;;;;;;;;;;5050984;28;20033;-80
2021/03/20 09:59:29;;;;;;;2.85;1.55;;;;;;;;;;5035088;28;20499;-80
2021/03/20 10:02:20;;;;;;;3.13;1.60;;;;;;;;;;5050696;28;20041;-81
2021/03/20 10:04:52;;;;;;;3.13;1.70;;;;;;;;;;5033435;28;20041;-80
2021/03/20 10:07:26;;;;;;;3.17;1.48;;;;;;;;;;5034583;28;20119;-81
2021/03/20 10:10:11;;;;;;;2.75;1.70;;;;;;;;;;5017917;28;20041;-82
2021/03/20 10:12:39;;;;;;;4.28;1.75;;;;;;;;;;5018679;28;20502;-79
2021/03/20 10:15:14;;;;;;;3.72;1.77;;;;;;;;;;5051975;28;20827;-80
2021/03/20 10:18:00;;;;;;;4.55;1.85;;;;;;;;;;5033606;28;20538;-80
2021/03/20 10:20:51;;;;;;;4.03;1.67;;;;;;;;;;5029255;28;20122;-80
2021/03/20 10:23:24;;;;;;;4.93;1.75;;;;;;;;;;5022843;28;20048;-80
2021/03/20 10:25:52;;;;;;;3.75;1.83;;;;;;;;;;5029362;28;20049;-80
2021/03/20 10:28:18;;;;;;;3.78;1.45;;;;;;;;;;5030696;28;20496;-79
2021/03/20 10:30:57;;;;;;;3.60;1.30;;;;;;;;;;5063746;28;20038;-80
2021/03/20 10:33:27;;;;;;;4.82;1.20;;;;;;;;;;5031034;28;20044;-79
2021/03/20 10:35:52;;;;;;;2.65;1.17;;;;;;;;;;5047191;28;20034;-80
2021/03/20 10:38:28;;;;;;;3.78;1.60;;;;;;;;;;5013650;28;20034;-79
2021/03/20 10:41:02;;;;;;;3.47;1.88;;;;;;;;;;5047033;28;20116;-79
2021/03/20 10:43:28;;;;;;;2.47;1.00;;;;;;;;;;5029927;28;20123;-82
2021/03/20 10:45:53;;;;;;;2.58;0.82;;;;;;;;;;5017432;28;20231;-80
2021/03/20 10:48:25;;;;;;;3.45;0.95;;;;;;;;;;5033631;28;20072;-80
2021/03/20 10:50:59;;;;;;;2.33;0.98;;;;;;;;;;5000864;28;20064;-79
2021/03/20 10:53:26;;;;;;;1.60;0.90;;;;;;;;;;5030650;28;20104;-79
2021/03/20 10:55:56;;;;;;;2.50;0.82;;;;;;;;;;5014109;28;20045;-79
2021/03/20 10:58:42;;;;;;;4.57;1.60;;;;;;;;;;5014685;28;20389;-79
2021/03/20 11:01:08;;;;;;;3.03;1.63;;;;;;;;;;5013153;28;20045;-80
2021/03/20 11:03:36;;;;;;;466.85;251.13;;;;;;;;;;5013920;28;20037;-80
2021/03/20 11:06:18;;;;;;;441.73;213.65;;;;;;;;;;5010519;28;20041;-79
2021/03/20 11:08:45;;;;;;;343.60;161.60;;;;;;;;;;5004831;28;20662;-79
2021/03/20 11:11:23;;;;;;;159.70;72.85;;;;;;;;;;5004622;28;20037;-80
2021/03/20 11:13:52;;;;;;;125.95;58.55;;;;;;;;;;5037106;28;20041;-79
2021/03/20 11:16:20;;;;;;;90.10;44.60;;;;;;;;;;5002249;28;20403;-80
2021/03/20 11:18:49;;;;;;;82.03;38.78;;;;;;;;;;5017781;28;20060;-80
2021/03/20 11:21:17;;;;;;;66.28;33.47;;;;;;;;;;5034369;28;20064;-80
2021/03/20 11:23:42;;;;;;;68.13;33.28;;;;;;;;;;5018227;28;20030;-81
2021/03/20 11:26:15;;;;;;;60.13;30.02;;;;;;;;;;5011827;28;20044;-80
2021/03/20 11:28:40;;;;;;;64.47;30.58;;;;;;;;;;5031719;28;20029;-80
2021/03/20 11:31:06;;;;;;;55.42;24.83;;;;;;;;;;5052364;28;20044;-80
2021/03/20 11:33:37;;;;;;;44.92;22.65;;;;;;;;;;5033625;28;20035;-80
2021/03/20 11:36:03;;;;;;;42.55;20.02;;;;;;;;;;5018117;28;20041;-80
2021/03/20 11:38:29;;;;;;;39.33;19.67;;;;;;;;;;5001188;28;20075;-80
2021/03/20 11:41:16;;;;;;;34.60;17.42;;;;;;;;;;5000419;28;20049;-80
2021/03/20 11:43:51;;;;;;;30.05;16.10;;;;;;;;;;5054550;28;20438;-80
2021/03/20 11:46:24;;;;;;;30.85;14.32;;;;;;;;;;5020433;28;20118;-80
2021/03/20 11:49:04;;;;;;;26.58;13.10;;;;;;;;;;5004068;28;20052;-79
2021/03/20 11:51:48;;;;;;;23.42;11.13;;;;;;;;;;5020365;28;20049;-80
2021/03/20 11:54:29;;;;;;;19.90;10.10;;;;;;;;;;5036434;28;20029;-81
2021/03/20 11:56:58;;;;;;;20.95;10.18;;;;;;;;;;5053043;28;20454;-80
2021/03/20 11:59:35;;;;;;;16.95;7.95;;;;;;;;;;5020544;28;20545;-80
2021/03/20 12:02:01;;;;;;;17.98;8.32;;;;;;;;;;5044480;28;20040;-80
2021/03/20 12:04:28;;;;;;;17.02;8.18;;;;;;;;;;5040090;28;20046;-80
2021/03/20 12:07:12;;;;;;;13.38;6.20;;;;;;;;;;5037431;28;20056;-81
2021/03/20 12:09:38;;;;;;;10.65;4.88;;;;;;;;;;5036362;28;20029;-81
2021/03/20 12:12:05;;;;;;;9.15;4.43;;;;;;;;;;5036433;28;20053;-80
2021/03/20 12:14:38;;;;;;;6.70;3.90;;;;;;;;;;5020341;28;20037;-80
2021/03/20 12:17:08;;;;;;;5.07;2.85;;;;;;;;;;5003485;28;20037;-80
2021/03/20 12:20:07;;;;;;;8.75;3.42;;;;;;;;;;5020511;28;20079;-80
2021/03/20 12:22:37;;;;;;;7.97;3.15;;;;;;;;;;5018157;28;20144;-79
2021/03/20 12:25:35;;;;;;;6.35;2.75;;;;;;;;;;5053903;28;20040;-81
2021/03/20 12:28:20;;;;;;;10.07;2.83;;;;;;;;;;5019536;28;20120;-81
2021/03/20 12:30:45;;;;;;;8.80;2.72;;;;;;;;;;5036185;28;20037;-81
2021/03/20 12:33:11;;;;;;;4.57;2.15;;;;;;;;;;5019843;28;20069;-81
2021/03/20 12:35:38;;;;;;;6.80;1.65;;;;;;;;;;5052941;28;20037;-81
2021/03/20 12:38:13;;;;;;;5.97;2.10;;;;;;;;;;5036266;28;20033;-80
2021/03/20 12:40:52;;;;;;;8.05;2.10;;;;;;;;;;5035530;28;20068;-80
2021/03/20 12:43:23;;;;;;;4.05;1.25;;;;;;;;;;5020664;28;20120;-81
2021/03/20 12:45:48;;;;;;;3.47;1.20;;;;;;;;;;5019586;28;20517;-80
2021/03/20 12:48:14;;;;;;;4.75;1.52;;;;;;;;;;5035851;28;20056;-80
2021/03/20 12:50:40;;;;;;;3.75;1.85;;;;;;;;;;5035961;28;20037;-81
2021/03/20 12:53:05;;;;;;;3.95;1.23;;;;;;;;;;5030407;28;20147;-81
2021/03/20 12:55:31;;;;;;;4.15;1.30;;;;;;;;;;5035360;28;20086;-81
2021/03/20 12:57:56;;;;;;;6.38;0.80;;;;;;;;;;5019478;28;20041;-81
2021/03/20 13:00:22;;;;;;;3.05;1.05;;;;;;;;;;5052181;28;20411;-81
2021/03/20 13:02:47;;;;;;;6.25;1.35;;;;;;;;;;5049380;28;20498;-81
2021/03/20 13:05:35;;;;;;;5.28;1.00;;;;;;;;;;5017452;28;20445;-76
2021/03/20 13:08:01;;;;;;;5.28;1.55;;;;;;;;;;5019303;28;20140;-76
2021/03/20 13:10:26;;;;;;;5.97;1.30;;;;;;;;;;5034593;28;20399;-76
2021/03/20 13:12:52;;;;;;;4.75;1.27;;;;;;;;;;5000174;28;20045;-76
2021/03/20 13:15:17;;;;;;;4.45;1.30;;;;;;;;;;5049389;28;20522;-76
2021/03/20 13:17:43;;;;;;;4.88;1.13;;;;;;;;;;5033983;28;20159;-77
2021/03/20 13:20:09;;;;;;;5.18;1.33;;;;;;;;;;5019080;28;20495;-77
2021/03/20 13:22:34;;;;;;;3.17;1.27;;;;;;;;;;5035243;28;20095;-76
2021/03/20 13:25:00;;;;;;;4.45;0.95;;;;;;;;;;5034690;28;20048;-77
2021/03/20 13:27:26;;;;;;;3.85;1.17;;;;;;;;;;5017690;28;20056;-77
2021/03/20 13:29:52;;;;;;;7.18;1.13;;;;;;;;;;5018598;28;20075;-80
2021/03/20 13:32:18;;;;;;;3.00;1.10;;;;;;;;;;5034868;28;20037;-79
2021/03/20 13:34:43;;;;;;;5.05;0.90;;;;;;;;;;5018563;28;20040;-79
2021/03/20 13:37:08;;;;;;;4.35;1.17;;;;;;;;;;5051525;28;20442;-77
2021/03/20 13:39:34;;;;;;;5.18;0.73;;;;;;;;;;5033550;28;20025;-78
2021/03/20 13:41:59;;;;;;;4.15;0.73;;;;;;;;;;5018924;28;20044;-79
2021/03/20 13:44:25;;;;;;;3.97;1.00;;;;;;;;;;5018337;28;20049;-79
2021/03/20 13:46:50;;;;;;;4.43;1.42;;;;;;;;;;5034601;28;20446;-79
2021/03/20 13:49:16;;;;;;;2.20;0.95;;;;;;;;;;5018305;28;20108;-79
2021/03/20 13:51:41;;;;;;;2.50;1.10;;;;;;;;;;5031658;28;20045;-80
2021/03/20 13:54:07;;;;;;;2.70;1.17;;;;;;;;;;5030698;28;20491;-79
2021/03/20 13:56:32;;;;;;;2.72;1.10;;;;;;;;;;5016608;28;20033;-80
2021/03/20 13:58:58;;;;;;;3.63;1.52;;;;;;;;;;5018192;28;20064;-80
2021/03/20 14:01:23;;;;;;;2.25;1.05;;;;;;;;;;5019566;28;20044;-79
2021/03/20 14:03:49;;;;;;;2.97;1.20;;;;;;;;;;5035567;28;20068;-79
2021/03/20 14:06:14;;;;;;;2.83;1.00;;;;;;;;;;5017636;28;20059;-79
2021/03/20 14:08:40;;;;;;;1.98;1.23;;;;;;;;;;5016933;28;20099;-79
2021/03/20 14:11:06;;;;;;;4.25;1.73;;;;;;;;;;5001132;28;20041;-79
2021/03/20 14:13:31;;;;;;;2.50;1.05;;;;;;;;;;5001290;28;20407;-79
2021/03/20 14:15:56;;;;;;;1.98;1.08;;;;;;;;;;5030339;28;20035;-79
2021/03/20 14:18:25;;;;;;;1.88;1.08;;;;;;;;;;5030194;28;20124;-80
2021/03/20 14:20:53;;;;;;;3.15;1.08;;;;;;;;;;5030448;28;20040;-79
2021/03/20 14:23:19;;;;;;;2.42;1.10;;;;;;;;;;5013458;28;20606;-79
2021/03/20 14:25:45;;;;;;;3.78;1.20;;;;;;;;;;5030413;28;20057;-79
2021/03/20 14:28:10;;;;;;;2.63;1.42;;;;;;;;;;4998123;28;20045;-79
2021/03/20 14:30:44;;;;;;;2.90;1.20;;;;;;;;;;5013945;28;20044;-79
2021/03/20 14:33:09;;;;;;;2.53;1.20;;;;;;;;;;5014417;28;20026;-79
2021/03/20 14:35:35;;;;;;;2.90;1.17;;;;;;;;;;5014020;28;20049;-79
2021/03/20 14:38:00;;;;;;;2.03;1.27;;;;;;;;;;5029726;28;20042;-78
2021/03/20 14:40:29;;;;;;;3.00;1.30;;;;;;;;;;5029329;28;20112;-79
2021/03/20 14:42:54;;;;;;;2.78;1.00;;;;;;;;;;4981729;28;20041;-79
2021/03/20 14:45:20;;;;;;;1.83;1.13;;;;;;;;;;5000754;28;20072;-78
2021/03/20 14:47:45;;;;;;;2.28;1.05;;;;;;;;;;4997428;28;20399;-78
2021/03/20 14:50:13;;;;;;;2.35;1.50;;;;;;;;;;4997317;28;20083;-79
2021/03/20 14:52:40;;;;;;;2.45;1.08;;;;;;;;;;4997086;28;20558;-78
2021/03/20 14:55:06;;;;;;;1.90;1.00;;;;;;;;;;4997273;28;20044;-79
2021/03/20 14:57:31;;;;;;;2.10;1.20;;;;;;;;;;5030553;28;20033;-79
2021/03/20 14:59:56;;;;;;;1.95;0.77;;;;;;;;;;5013631;28;20388;-79
2021/03/20 15:02:22;;;;;;;2.13;0.90;;;;;;;;;;5050112;28;20039;-79
2021/03/20 15:04:47;;;;;;;2.40;1.00;;;;;;;;;;5034963;28;20032;-79
2021/03/20 15:07:13;;;;;;;5.47;1.33;;;;;;;;;;5015837;28;20441;-80
2021/03/20 15:09:39;;;;;;;2.15;1.20;;;;;;;;;;5016771;28;20094;-79
2021/03/20 15:12:05;;;;;;;2.33;0.88;;;;;;;;;;5016720;28;20029;-79
2021/03/20 15:14:31;;;;;;;1.95;0.90;;;;;;;;;;5017295;28;20139;-79
2021/03/20 15:16:56;;;;;;;1.48;0.85;;;;;;;;;;5012456;28;20108;-79
2021/03/20 15:19:25;;;;;;;2.90;1.38;;;;;;;;;;4997333;28;20044;-79